Time,TemperatureF,DewpointF,PressureIn,WindDirection,WindDirectionDegrees,WindSpeedMPH,WindSpeedGustMPH,Humidity,HourlyPrecipIn,Conditions,Clouds,dailyrainin,SoftwareType,DateUTC
2013-08-24 00:00:00,64.4,53.6,29.35,SSE,157,0.0,0.0,69,28.48,,,28.48,WeatherTracker,2013-08-24 04:00:00,
2013-08-24 00:05:00,64.4,53.6,29.35,ESE,112,2.0,2.0,69,28.48,,,28.48,WeatherTracker,2013-08-24 04:05:00,
2013-08-24 00:10:00,64.4,53.6,29.35,East,90,2.0,5.0,69,28.48,,,28.48,WeatherTracker,2013-08-24 04:10:00,
2013-08-24 00:15:00,64.4,53.6,29.38,NW,315,1.0,1.0,69,28.48,,,28.48,WeatherTracker,2013-08-24 04:15:00,
2013-08-24 00:20:00,64.4,55.4,29.38,NNE,22,1.0,3.0,70,28.48,,,28.48,WeatherTracker,2013-08-24 04:20:00,
2013-08-24 00:30:00,64.4,55.4,29.38,South,180,2.0,2.0,70,28.48,,,28.48,WeatherTracker,2013-08-24 04:30:00,
2013-08-24 00:35:00,64.4,55.4,29.38,East,90,2.0,2.0,70,28.48,,,28.48,WeatherTracker,2013-08-24 04:35:00,
2013-08-24 00:40:00,64.2,55.4,29.38,NW,315,1.0,2.0,70,28.48,,,28.48,WeatherTracker,2013-08-24 04:40:00,
2013-08-24 00:45:00,64.2,55.4,29.38,ESE,112,1.0,1.0,70,28.48,,,28.48,WeatherTracker,2013-08-24 04:45:00,
2013-08-24 00:50:00,64.2,55.4,29.38,East,90,1.0,0.0,70,28.48,,,28.48,WeatherTracker,2013-08-24 04:50:00,
2013-08-24 00:55:00,64.2,55.4,29.38,SSW,202,1.0,0.0,70,28.48,,,28.48,WeatherTracker,2013-08-24 04:55:00,
2013-08-24 01:00:00,64.0,53.6,29.38,ESE,112,0.0,0.0,70,28.48,,,28.48,WeatherTracker,2013-08-24 05:00:00,
2013-08-24 01:10:00,64.0,55.4,29.38,ESE,112,0.0,0.0,71,28.48,,,28.48,WeatherTracker,2013-08-24 05:10:00,
2013-08-24 01:15:00,64.0,55.4,29.35,NE,45,0.0,0.0,71,28.48,,,28.48,WeatherTracker,2013-08-24 05:15:00,
2013-08-24 01:20:00,64.0,55.4,29.35,NNE,22,0.0,1.0,71,28.48,,,28.48,WeatherTracker,2013-08-24 05:20:00,
2013-08-24 01:25:00,64.2,55.4,29.35,NE,45,1.0,3.0,72,28.48,,,28.48,WeatherTracker,2013-08-24 05:25:00,
2013-08-24 01:30:00,64.4,55.4,29.38,NE,45,0.0,2.0,71,28.48,,,28.48,WeatherTracker,2013-08-24 05:30:00,
2013-08-24 01:35:00,64.4,55.4,29.38,NE,45,1.0,0.0,71,28.48,,,28.48,WeatherTracker,2013-08-24 05:35:00,
2013-08-24 01:40:00,64.6,55.4,29.38,NE,45,2.0,2.0,71,28.48,,,28.48,WeatherTracker,2013-08-24 05:40:00,
2013-08-24 01:45:00,64.6,55.4,29.41,East,90,2.0,2.0,70,28.48,,,28.48,WeatherTracker,2013-08-24 05:45:00,
2013-08-24 01:55:00,64.8,55.4,29.41,East,90,3.0,0.0,70,28.48,,,28.48,WeatherTracker,2013-08-24 05:55:00,
2013-08-24 02:00:00,64.8,55.4,29.38,NNE,22,3.0,4.0,69,28.48,,,28.48,WeatherTracker,2013-08-24 06:00:00,
2013-08-24 02:05:00,64.9,55.4,29.38,South,180,2.0,2.0,69,28.48,,,28.48,WeatherTracker,2013-08-24 06:05:00,
2013-08-24 02:10:00,64.8,55.4,29.38,SE,135,2.0,2.0,68,28.48,,,28.48,WeatherTracker,2013-08-24 06:10:00,
2013-08-24 02:20:00,64.8,53.6,29.38,East,90,1.0,0.0,67,28.48,,,28.48,WeatherTracker,2013-08-24 06:20:00,
2013-08-24 02:25:00,64.9,53.6,29.38,ENE,67,2.0,3.0,67,28.48,,,28.48,WeatherTracker,2013-08-24 06:25:00,
2013-08-24 02:30:00,64.9,53.6,29.38,NNE,22,1.0,2.0,67,28.48,,,28.48,WeatherTracker,2013-08-24 06:30:00,
2013-08-24 02:35:00,64.9,53.6,29.38,NE,45,2.0,4.0,67,28.48,,,28.48,WeatherTracker,2013-08-24 06:35:00,
2013-08-24 02:40:00,64.9,53.6,29.38,ESE,112,0.0,3.0,66,28.48,,,28.48,WeatherTracker,2013-08-24 06:40:00,
2013-08-24 02:45:00,64.9,53.6,29.38,ESE,112,0.0,0.0,66,28.48,,,28.48,WeatherTracker,2013-08-24 06:45:00,
2013-08-24 02:55:00,64.8,53.6,29.38,NE,45,1.0,2.0,66,28.48,,,28.48,WeatherTracker,2013-08-24 06:55:00,
2013-08-24 03:00:00,64.8,53.6,29.38,East,90,4.0,4.0,67,28.48,,,28.48,WeatherTracker,2013-08-24 07:00:00,
2013-08-24 03:05:00,64.8,53.6,29.38,SE,135,0.0,0.0,67,28.48,,,28.48,WeatherTracker,2013-08-24 07:05:00,
2013-08-24 03:15:00,64.6,53.6,29.38,ESE,112,0.0,2.0,67,28.48,,,28.48,WeatherTracker,2013-08-24 07:15:00,
2013-08-24 03:25:00,64.4,53.6,29.38,NNE,22,0.0,2.0,68,28.48,,,28.48,WeatherTracker,2013-08-24 07:25:00,
2013-08-24 03:30:00,64.4,53.6,29.38,ENE,67,4.0,4.0,68,28.48,,,28.48,WeatherTracker,2013-08-24 07:30:00,
2013-08-24 03:40:00,64.4,55.4,29.38,ESE,112,0.0,0.0,70,28.48,,,28.48,WeatherTracker,2013-08-24 07:40:00,
2013-08-24 03:45:00,64.4,55.4,29.38,East,90,0.0,2.0,70,28.48,,,28.48,WeatherTracker,2013-08-24 07:45:00,
2013-08-24 03:50:00,64.6,55.4,29.38,ESE,112,0.0,0.0,70,28.48,,,28.48,WeatherTracker,2013-08-24 07:50:00,
2013-08-24 03:55:00,64.8,55.4,29.38,ENE,67,2.0,0.0,71,28.48,,,28.48,WeatherTracker,2013-08-24 07:55:00,
2013-08-24 04:05:00,64.8,55.4,29.41,North,0,3.0,3.0,71,28.48,,,28.48,WeatherTracker,2013-08-24 08:05:00,
2013-08-24 04:10:00,64.8,55.4,29.41,ENE,67,1.0,2.0,71,28.48,,,28.48,WeatherTracker,2013-08-24 08:10:00,
2013-08-24 04:15:00,64.9,55.4,29.38,SSE,157,1.0,0.0,71,28.48,,,28.48,WeatherTracker,2013-08-24 08:15:00,
2013-08-24 04:20:00,64.9,55.4,29.38,North,0,1.0,0.0,71,28.48,,,28.48,WeatherTracker,2013-08-24 08:20:00,
2013-08-24 04:30:00,64.9,55.4,29.38,SE,135,2.0,2.0,71,28.48,,,28.48,WeatherTracker,2013-08-24 08:30:00,
2013-08-24 04:35:00,64.9,55.4,29.38,NNE,22,0.0,0.0,71,28.48,,,28.48,WeatherTracker,2013-08-24 08:35:00,
2013-08-24 04:40:00,64.8,55.4,29.38,NE,45,2.0,3.0,71,28.48,,,28.48,WeatherTracker,2013-08-24 08:40:00,
2013-08-24 04:45:00,64.8,55.4,29.38,ENE,67,2.0,2.0,71,28.48,,,28.48,WeatherTracker,2013-08-24 08:45:00,
2013-08-24 04:50:00,64.8,55.4,29.38,SSE,157,2.0,2.0,71,28.48,,,28.48,WeatherTracker,2013-08-24 08:50:00,
2013-08-24 04:55:00,64.8,55.4,29.38,ENE,67,2.0,5.0,71,28.48,,,28.48,WeatherTracker,2013-08-24 08:55:00,
2013-08-24 05:00:00,64.6,55.4,29.41,SSE,157,2.0,0.0,71,28.48,,,28.48,WeatherTracker,2013-08-24 09:00:00,
2013-08-24 05:05:00,64.4,55.4,29.41,ENE,67,2.0,2.0,71,28.48,,,28.48,WeatherTracker,2013-08-24 09:05:00,
2013-08-24 05:10:00,64.0,55.4,29.41,ESE,112,0.0,2.0,72,28.48,,,28.48,WeatherTracker,2013-08-24 09:10:00,
2013-08-24 05:15:00,63.9,55.4,29.41,SSE,157,1.0,0.0,72,28.48,,,28.48,WeatherTracker,2013-08-24 09:15:00,
2013-08-24 05:20:00,63.5,55.4,29.41,South,180,1.0,1.0,72,28.48,,,28.48,WeatherTracker,2013-08-24 09:20:00,
2013-08-24 05:25:00,63.5,55.4,29.41,ESE,112,2.0,0.0,74,28.48,,,28.48,WeatherTracker,2013-08-24 09:25:00,
2013-08-24 05:30:00,63.3,55.4,29.44,ESE,112,1.0,0.0,74,28.48,,,28.48,WeatherTracker,2013-08-24 09:30:00,
2013-08-24 05:35:00,63.1,55.4,29.44,East,90,0.0,1.0,76,28.48,,,28.48,WeatherTracker,2013-08-24 09:35:00,
2013-08-24 05:40:00,63.1,55.4,29.44,ESE,112,0.0,0.0,76,28.48,,,28.48,WeatherTracker,2013-08-24 09:40:00,
2013-08-24 05:50:00,62.8,55.4,29.44,ENE,67,2.0,2.0,76,28.48,,,28.48,WeatherTracker,2013-08-24 09:50:00,
2013-08-24 05:55:00,62.6,55.4,29.44,East,90,0.0,0.0,77,28.48,,,28.48,WeatherTracker,2013-08-24 09:55:00,
2013-08-24 06:00:00,62.4,55.4,29.44,ESE,112,0.0,2.0,78,28.48,,,28.48,WeatherTracker,2013-08-24 10:00:00,
2013-08-24 06:05:00,62.4,57.2,29.44,SSE,157,1.0,1.0,80,28.48,,,28.48,WeatherTracker,2013-08-24 10:05:00,
2013-08-24 06:10:00,62.2,55.4,29.44,SSE,157,0.0,0.0,79,28.48,,,28.48,WeatherTracker,2013-08-24 10:10:00,
2013-08-24 06:15:00,62.2,55.4,29.44,SSE,157,1.0,0.0,81,28.48,,,28.48,WeatherTracker,2013-08-24 10:15:00,
2013-08-24 06:25:00,62.1,55.4,29.44,ESE,112,0.0,0.0,81,28.48,,,28.48,WeatherTracker,2013-08-24 10:25:00,
2013-08-24 06:35:00,61.9,55.4,29.44,ENE,67,1.0,0.0,81,28.48,,,28.48,WeatherTracker,2013-08-24 10:35:00,
2013-08-24 06:40:00,61.9,55.4,29.44,ESE,112,0.0,0.0,81,28.48,,,28.48,WeatherTracker,2013-08-24 10:40:00,
2013-08-24 06:45:00,61.9,55.4,29.44,ESE,112,0.0,0.0,81,28.48,,,28.48,WeatherTracker,2013-08-24 10:45:00,
2013-08-24 06:55:00,61.7,55.4,29.44,ESE,112,0.0,0.0,81,28.48,,,28.48,WeatherTracker,2013-08-24 10:55:00,
2013-08-24 07:00:00,61.7,57.2,29.44,SE,135,0.0,0.0,82,28.48,,,28.48,WeatherTracker,2013-08-24 11:00:00,
2013-08-24 07:05:00,61.5,55.4,29.44,East,90,1.0,0.0,82,28.48,,,28.48,WeatherTracker,2013-08-24 11:05:00,
2013-08-24 07:10:00,61.5,55.4,29.44,SSE,157,0.0,0.0,82,28.48,,,28.48,WeatherTracker,2013-08-24 11:10:00,
2013-08-24 07:15:00,61.7,57.2,29.47,SE,135,1.0,0.0,82,28.48,,,28.48,WeatherTracker,2013-08-24 11:15:00,
2013-08-24 07:20:00,61.7,57.2,29.47,SE,135,0.0,0.0,82,28.48,,,28.48,WeatherTracker,2013-08-24 11:20:00,
2013-08-24 07:25:00,61.9,57.2,29.47,ENE,67,2.0,2.0,82,28.48,,,28.48,WeatherTracker,2013-08-24 11:25:00,
2013-08-24 07:30:00,61.9,57.2,29.47,ESE,112,0.0,0.0,82,28.48,,,28.48,WeatherTracker,2013-08-24 11:30:00,
2013-08-24 07:40:00,62.6,57.2,29.47,ENE,67,1.0,1.0,82,28.48,,,28.48,WeatherTracker,2013-08-24 11:40:00,
2013-08-24 07:50:00,63.1,57.2,29.47,ENE,67,2.0,0.0,82,28.48,,,28.48,WeatherTracker,2013-08-24 11:50:00,
2013-08-24 07:55:00,63.5,57.2,29.47,SE,135,1.0,2.0,81,28.48,,,28.48,WeatherTracker,2013-08-24 11:55:00,
2013-08-24 08:00:00,63.9,57.2,29.47,NW,315,1.0,2.0,81,28.48,,,28.48,WeatherTracker,2013-08-24 12:00:00,
2013-08-24 08:05:00,64.0,57.2,29.47,ESE,112,0.0,0.0,80,28.48,,,28.48,WeatherTracker,2013-08-24 12:05:00,
2013-08-24 08:10:00,64.4,57.2,29.47,ESE,112,1.0,2.0,78,28.48,,,28.48,WeatherTracker,2013-08-24 12:10:00,
2013-08-24 08:20:00,65.5,59.0,29.47,SSE,157,0.0,0.0,77,28.48,,,28.48,WeatherTracker,2013-08-24 12:20:00,
2013-08-24 08:25:00,65.8,57.2,29.47,East,90,3.0,3.0,73,28.48,,,28.48,WeatherTracker,2013-08-24 12:25:00,
2013-08-24 08:30:00,66.2,55.4,29.47,SSE,157,2.0,2.0,70,28.48,,,28.48,WeatherTracker,2013-08-24 12:30:00,
2013-08-24 08:35:00,66.9,55.4,29.47,ESE,112,4.0,4.0,64,28.48,,,28.48,WeatherTracker,2013-08-24 12:35:00,
2013-08-24 08:45:00,68.5,55.4,29.47,East,90,2.0,2.0,61,28.48,,,28.48,WeatherTracker,2013-08-24 12:45:00,
2013-08-24 08:55:00,70.0,51.8,29.47,SSE,157,2.0,2.0,52,28.48,,,28.48,WeatherTracker,2013-08-24 12:55:00,
2013-08-24 09:00:00,70.5,48.2,29.47,East,90,3.0,4.0,46,28.48,,,28.48,WeatherTracker,2013-08-24 13:00:00,
2013-08-24 09:05:00,70.3,48.2,29.47,SSE,157,1.0,1.0,45,28.48,,,28.48,WeatherTracker,2013-08-24 13:05:00,
2013-08-24 09:15:00,71.2,48.2,29.50,East,90,2.0,2.0,43,28.48,,,28.48,WeatherTracker,2013-08-24 13:15:00,
2013-08-24 09:20:00,70.9,46.4,29.50,South,180,3.0,3.0,41,28.48,,,28.48,WeatherTracker,2013-08-24 13:20:00,
2013-08-24 09:30:00,72.5,46.4,29.50,NNE,22,2.0,4.0,39,28.48,,,28.48,WeatherTracker,2013-08-24 13:30:00,
2013-08-24 09:40:00,73.2,42.8,29.50,East,90,3.0,5.0,34,28.48,,,28.48,WeatherTracker,2013-08-24 13:40:00,
2013-08-24 09:45:00,73.4,42.8,29.50,East,90,3.0,3.0,32,28.48,,,28.48,WeatherTracker,2013-08-24 13:45:00,
2013-08-24 09:50:00,74.5,44.6,29.50,ESE,112,2.0,2.0,33,28.48,,,28.48,WeatherTracker,2013-08-24 13:50:00,
2013-08-24 09:55:00,75.2,42.8,29.50,ESE,112,3.0,3.0,31,28.48,,,28.48,WeatherTracker,2013-08-24 13:55:00,
2013-08-24 10:05:00,76.6,44.6,29.50,ESE,112,1.0,0.0,31,28.48,,,28.48,WeatherTracker,2013-08-24 14:05:00,
2013-08-24 10:10:00,77.0,42.8,29.50,ENE,67,3.0,4.0,30,28.48,,,28.48,WeatherTracker,2013-08-24 14:10:00,
2013-08-24 10:15:00,77.5,41.0,29.50,East,90,6.0,6.0,26,28.48,,,28.48,WeatherTracker,2013-08-24 14:15:00,
2013-08-24 10:20:00,78.3,42.8,29.50,SE,135,2.0,2.0,28,28.48,,,28.48,WeatherTracker,2013-08-24 14:20:00,
2013-08-24 10:25:00,78.6,41.0,29.50,SE,135,3.0,3.0,25,28.48,,,28.48,WeatherTracker,2013-08-24 14:25:00,
2013-08-24 10:30:00,78.8,39.2,29.47,ENE,67,3.0,3.0,24,28.48,,,28.48,WeatherTracker,2013-08-24 14:30:00,
2013-08-24 10:35:00,79.5,39.2,29.47,South,180,2.0,2.0,24,28.48,,,28.48,WeatherTracker,2013-08-24 14:35:00,
2013-08-24 10:40:00,80.1,41.0,29.47,NNE,22,2.0,2.0,24,28.48,,,28.48,WeatherTracker,2013-08-24 14:40:00,
2013-08-24 10:50:00,81.9,41.0,29.50,SE,135,1.0,2.0,23,28.48,,,28.48,WeatherTracker,2013-08-24 14:50:00,
2013-08-24 10:55:00,81.3,39.2,29.50,SE,135,3.0,3.0,22,28.48,,,28.48,WeatherTracker,2013-08-24 14:55:00,
2013-08-24 11:05:00,82.8,39.2,29.50,North,0,3.0,4.0,21,28.48,,,28.48,WeatherTracker,2013-08-24 15:05:00,
2013-08-24 11:15:00,82.9,37.4,29.50,SSE,157,2.0,4.0,20,28.48,,,28.48,WeatherTracker,2013-08-24 15:15:00,
2013-08-24 11:20:00,82.9,37.4,29.50,East,90,4.0,4.0,20,28.48,,,28.48,WeatherTracker,2013-08-24 15:20:00,
2013-08-24 11:25:00,83.3,39.2,29.50,ESE,112,2.0,2.0,20,28.48,,,28.48,WeatherTracker,2013-08-24 15:25:00,
2013-08-24 11:30:00,84.4,39.2,29.50,SE,135,2.0,2.0,20,28.48,,,28.48,WeatherTracker,2013-08-24 15:30:00,
2013-08-24 11:40:00,85.1,39.2,29.50,SE,135,3.0,3.0,19,28.48,,,28.48,WeatherTracker,2013-08-24 15:40:00,
2013-08-24 11:45:00,85.3,39.2,29.50,ESE,112,4.0,4.0,19,28.48,,,28.48,WeatherTracker,2013-08-24 15:45:00,
2013-08-24 11:50:00,85.8,39.2,29.50,ENE,67,3.0,4.0,19,28.48,,,28.48,WeatherTracker,2013-08-24 15:50:00,
2013-08-24 11:55:00,84.9,37.4,29.50,ENE,67,3.0,3.0,18,28.48,,,28.48,WeatherTracker,2013-08-24 15:55:00,
2013-08-24 12:00:00,84.6,37.4,29.50,East,90,3.0,4.0,18,28.48,,,28.48,WeatherTracker,2013-08-24 16:00:00,
2013-08-24 12:05:00,85.6,37.4,29.50,East,90,2.0,2.0,18,28.48,,,28.48,WeatherTracker,2013-08-24 16:05:00,
2013-08-24 12:15:00,84.0,37.4,29.50,South,180,3.0,3.0,19,28.48,,,28.48,WeatherTracker,2013-08-24 16:15:00,
2013-08-24 12:20:00,85.1,37.4,29.50,East,90,1.0,4.0,18,28.48,,,28.48,WeatherTracker,2013-08-24 16:20:00,
2013-08-24 12:25:00,85.8,37.4,29.50,ESE,112,2.0,3.0,18,28.48,,,28.48,WeatherTracker,2013-08-24 16:25:00,
2013-08-24 12:30:00,85.6,37.4,29.50,SSW,202,2.0,3.0,18,28.48,,,28.48,WeatherTracker,2013-08-24 16:30:00,
2013-08-24 12:40:00,86.5,37.4,29.50,ESE,112,2.0,2.0,18,28.48,,,28.48,WeatherTracker,2013-08-24 16:40:00,
2013-08-24 12:45:00,87.1,39.2,29.50,ENE,67,2.0,3.0,18,28.48,,,28.48,WeatherTracker,2013-08-24 16:45:00,
2013-08-24 12:50:00,87.1,35.6,29.50,NE,45,3.0,3.0,16,28.48,,,28.48,WeatherTracker,2013-08-24 16:50:00,
2013-08-24 12:55:00,87.4,35.6,29.50,ENE,67,2.0,3.0,16,28.48,,,28.48,WeatherTracker,2013-08-24 16:55:00,
2013-08-24 13:00:00,87.4,35.6,29.50,South,180,3.0,5.0,16,28.48,,,28.48,WeatherTracker,2013-08-24 17:00:00,
2013-08-24 13:05:00,87.6,35.6,29.50,ESE,112,2.0,2.0,16,28.48,,,28.48,WeatherTracker,2013-08-24 17:05:00,
2013-08-24 13:10:00,87.3,35.6,29.50,ENE,67,2.0,5.0,16,28.48,,,28.48,WeatherTracker,2013-08-24 17:10:00,
2013-08-24 13:15:00,87.8,33.8,29.50,ESE,112,4.0,6.0,15,28.48,,,28.48,WeatherTracker,2013-08-24 17:15:00,
2013-08-24 13:25:00,87.6,35.6,29.50,West,270,2.0,2.0,16,28.48,,,28.48,WeatherTracker,2013-08-24 17:25:00,
2013-08-24 13:30:00,88.5,35.6,29.50,ESE,112,2.0,3.0,15,28.48,,,28.48,WeatherTracker,2013-08-24 17:30:00,
2013-08-24 13:40:00,88.2,35.6,29.50,ESE,112,4.0,4.0,15,28.48,,,28.48,WeatherTracker,2013-08-24 17:40:00,
2013-08-24 13:45:00,88.3,35.6,29.50,SE,135,5.0,5.0,15,28.48,,,28.48,WeatherTracker,2013-08-24 17:45:00,
2013-08-24 13:50:00,88.2,35.6,29.50,East,90,3.0,3.0,15,28.48,,,28.48,WeatherTracker,2013-08-24 17:50:00,
2013-08-24 13:55:00,89.1,35.6,29.50,ESE,112,3.0,3.0,15,28.48,,,28.48,WeatherTracker,2013-08-24 17:55:00,
2013-08-24 14:00:00,88.3,35.6,29.50,ESE,112,1.0,1.0,15,28.48,,,28.48,WeatherTracker,2013-08-24 18:00:00,
2013-08-24 14:05:00,88.9,32.0,29.50,East,90,3.0,3.0,13,28.48,,,28.48,WeatherTracker,2013-08-24 18:05:00,
2013-08-24 14:10:00,88.2,32.0,29.50,ESE,112,2.0,2.0,13,28.48,,,28.48,WeatherTracker,2013-08-24 18:10:00,
2013-08-24 14:15:00,89.1,32.0,29.50,East,90,3.0,3.0,13,28.48,,,28.48,WeatherTracker,2013-08-24 18:15:00,
2013-08-24 14:20:00,90.0,30.2,29.50,ENE,67,4.0,4.0,12,28.48,,,28.48,WeatherTracker,2013-08-24 18:20:00,
2013-08-24 14:25:00,89.2,32.0,29.50,East,90,2.0,4.0,13,28.48,,,28.48,WeatherTracker,2013-08-24 18:25:00,
2013-08-24 14:35:00,89.4,32.0,29.50,ESE,112,4.0,4.0,13,28.48,,,28.48,WeatherTracker,2013-08-24 18:35:00,
2013-08-24 14:40:00,90.5,32.0,29.50,NE,45,3.0,3.0,12,28.48,,,28.48,WeatherTracker,2013-08-24 18:40:00,
2013-08-24 14:45:00,91.0,32.0,29.50,ESE,112,2.0,2.0,12,28.48,,,28.48,WeatherTracker,2013-08-24 18:45:00,
2013-08-24 14:50:00,90.7,32.0,29.50,ENE,67,3.0,4.0,12,28.48,,,28.48,WeatherTracker,2013-08-24 18:50:00,
2013-08-24 14:55:00,90.7,32.0,29.50,ESE,112,2.0,3.0,12,28.48,,,28.48,WeatherTracker,2013-08-24 18:55:00,
2013-08-24 15:00:00,90.3,30.2,29.50,ESE,112,4.0,4.0,12,28.48,,,28.48,WeatherTracker,2013-08-24 19:00:00,
2013-08-24 15:10:00,88.9,32.0,29.50,North,0,6.0,6.0,13,28.48,,,28.48,WeatherTracker,2013-08-24 19:10:00,
2013-08-24 15:15:00,88.3,32.0,29.50,East,90,2.0,2.0,13,28.48,,,28.48,WeatherTracker,2013-08-24 19:15:00,
2013-08-24 15:20:00,88.7,32.0,29.50,ENE,67,2.0,3.0,13,28.48,,,28.48,WeatherTracker,2013-08-24 19:20:00,
2013-08-24 15:25:00,89.6,30.2,29.50,ESE,112,4.0,4.0,12,28.48,,,28.48,WeatherTracker,2013-08-24 19:25:00,
2013-08-24 15:30:00,90.1,30.2,29.50,SE,135,3.0,3.0,12,28.48,,,28.48,WeatherTracker,2013-08-24 19:30:00,
2013-08-24 15:35:00,91.0,32.0,29.50,ENE,67,3.0,3.0,12,28.48,,,28.48,WeatherTracker,2013-08-24 19:35:00,
2013-08-24 15:40:00,88.2,32.0,29.50,SSE,157,2.0,2.0,13,28.48,,,28.48,WeatherTracker,2013-08-24 19:40:00,
2013-08-24 15:45:00,87.4,30.2,29.50,NE,45,4.0,4.0,13,28.48,,,28.48,WeatherTracker,2013-08-24 19:45:00,
2013-08-24 15:50:00,89.2,32.0,29.50,East,90,1.0,1.0,13,28.48,,,28.48,WeatherTracker,2013-08-24 19:50:00,
2013-08-24 15:55:00,90.1,30.2,29.50,ESE,112,4.0,5.0,12,28.48,,,28.48,WeatherTracker,2013-08-24 19:55:00,
2013-08-24 16:00:00,85.8,28.4,29.50,SSE,157,2.0,0.0,13,28.48,,,28.48,WeatherTracker,2013-08-24 20:00:00,
2013-08-24 16:05:00,85.8,28.4,29.50,SSE,157,0.0,0.0,13,28.48,,,28.48,WeatherTracker,2013-08-24 20:05:00,
2013-08-24 16:10:00,87.3,30.2,29.50,NNE,22,5.0,5.0,13,28.48,,,28.48,WeatherTracker,2013-08-24 20:10:00,
2013-08-24 16:15:00,88.3,32.0,29.50,NE,45,2.0,3.0,13,28.48,,,28.48,WeatherTracker,2013-08-24 20:15:00,
2013-08-24 16:20:00,88.7,32.0,29.50,SSE,157,1.0,1.0,13,28.48,,,28.48,WeatherTracker,2013-08-24 20:20:00,
2013-08-24 16:30:00,88.7,32.0,29.53,NE,45,3.0,3.0,13,28.48,,,28.48,WeatherTracker,2013-08-24 20:30:00,
2013-08-24 16:35:00,87.8,30.2,29.53,North,0,3.0,4.0,13,28.48,,,28.48,WeatherTracker,2013-08-24 20:35:00,
2013-08-24 16:40:00,88.5,32.0,29.53,SSE,157,2.0,2.0,13,28.48,,,28.48,WeatherTracker,2013-08-24 20:40:00,
2013-08-24 16:45:00,87.8,30.2,29.50,ESE,112,3.0,3.0,13,28.48,,,28.48,WeatherTracker,2013-08-24 20:45:00,
2013-08-24 16:55:00,88.0,30.2,29.50,East,90,2.0,4.0,13,28.48,,,28.48,WeatherTracker,2013-08-24 20:55:00,
2013-08-24 19:06:00,78.8,33.8,29.50,ESE,112,1.0,0.0,20,28.48,,,28.48,WeatherTracker,2013-08-24 23:06:00,
2013-08-24 19:15:00,78.3,33.8,29.50,ENE,67,2.0,0.0,20,28.48,,,28.48,WeatherTracker,2013-08-24 23:15:00,
2013-08-24 19:20:00,77.7,33.8,29.50,ENE,67,1.0,0.0,20,28.48,,,28.48,WeatherTracker,2013-08-24 23:20:00,
2013-08-24 19:25:00,77.4,33.8,29.50,ENE,67,0.0,0.0,20,28.48,,,28.48,WeatherTracker,2013-08-24 23:25:00,
2013-08-24 19:30:00,76.3,33.8,29.50,ENE,67,0.0,0.0,21,28.48,,,28.48,WeatherTracker,2013-08-24 23:30:00,
2013-08-24 19:35:00,75.0,33.8,29.50,ENE,67,0.0,0.0,21,28.48,,,28.48,WeatherTracker,2013-08-24 23:35:00,
2013-08-24 19:40:00,73.9,33.8,29.50,ENE,67,0.0,0.0,22,28.48,,,28.48,WeatherTracker,2013-08-24 23:40:00,
2013-08-24 19:45:00,72.9,33.8,29.50,ENE,67,0.0,0.0,23,28.48,,,28.48,WeatherTracker,2013-08-24 23:45:00,
2013-08-24 19:50:00,72.0,32.0,29.50,ENE,67,0.0,0.0,23,28.48,,,28.48,WeatherTracker,2013-08-24 23:50:00,
2013-08-24 19:55:00,71.2,33.8,29.50,ENE,67,0.0,0.0,25,28.48,,,28.48,WeatherTracker,2013-08-24 23:55:00,
2013-08-24 20:00:00,70.3,33.8,29.50,ENE,67,0.0,0.0,26,28.48,,,28.48,WeatherTracker,2013-08-25 00:00:00,
2013-08-24 20:05:00,69.8,33.8,29.50,ENE,67,0.0,0.0,27,28.48,,,28.48,WeatherTracker,2013-08-25 00:05:00,
2013-08-24 20:10:00,69.1,35.6,29.50,ENE,67,0.0,0.0,29,28.48,,,28.48,WeatherTracker,2013-08-25 00:10:00,
2013-08-24 20:15:00,68.5,35.6,29.50,ENE,67,0.0,0.0,30,28.48,,,28.48,WeatherTracker,2013-08-25 00:15:00,
2013-08-24 20:25:00,67.5,37.4,29.47,ENE,67,0.0,0.0,33,28.48,,,28.48,WeatherTracker,2013-08-25 00:25:00,
2013-08-24 20:30:00,67.3,37.4,29.47,ENE,67,0.0,0.0,33,28.48,,,28.48,WeatherTracker,2013-08-25 00:30:00,
2013-08-24 20:35:00,66.9,37.4,29.47,ENE,67,0.0,0.0,34,28.48,,,28.48,WeatherTracker,2013-08-25 00:35:00,
2013-08-24 20:40:00,66.6,37.4,29.50,ENE,67,0.0,0.0,34,28.48,,,28.48,WeatherTracker,2013-08-25 00:40:00,
2013-08-24 20:45:00,66.2,37.4,29.50,ENE,67,0.0,0.0,35,28.48,,,28.48,WeatherTracker,2013-08-25 00:45:00,
2013-08-24 20:50:00,66.0,39.2,29.50,ENE,67,0.0,0.0,36,28.48,,,28.48,WeatherTracker,2013-08-25 00:50:00,
2013-08-24 20:55:00,65.7,39.2,29.47,ENE,67,0.0,0.0,37,28.48,,,28.48,WeatherTracker,2013-08-25 00:55:00,
2013-08-24 21:00:00,65.5,39.2,29.47,ENE,67,0.0,0.0,38,28.48,,,28.48,WeatherTracker,2013-08-25 01:00:00,
2013-08-24 21:05:00,65.3,39.2,29.47,ENE,67,0.0,0.0,38,28.48,,,28.48,WeatherTracker,2013-08-25 01:05:00,
2013-08-24 21:10:00,65.1,41.0,29.53,ENE,67,0.0,0.0,41,28.48,,,28.48,WeatherTracker,2013-08-25 01:10:00,
2013-08-24 21:15:00,64.8,42.8,29.53,ENE,67,0.0,0.0,43,28.48,,,28.48,WeatherTracker,2013-08-25 01:15:00,
2013-08-24 21:20:00,64.4,41.0,29.53,ENE,67,0.0,0.0,43,28.48,,,28.48,WeatherTracker,2013-08-25 01:20:00,
2013-08-24 21:25:00,64.2,42.8,29.53,ENE,67,0.0,0.0,44,28.48,,,28.48,WeatherTracker,2013-08-25 01:25:00,
2013-08-24 21:30:00,64.0,42.8,29.53,ENE,67,0.0,0.0,45,28.48,,,28.48,WeatherTracker,2013-08-25 01:30:00,
2013-08-24 21:35:00,63.9,42.8,29.53,ENE,67,0.0,0.0,46,28.48,,,28.48,WeatherTracker,2013-08-25 01:35:00,
2013-08-24 21:40:00,63.9,42.8,29.53,ENE,67,0.0,0.0,47,28.48,,,28.48,WeatherTracker,2013-08-25 01:40:00,
2013-08-24 21:45:00,63.7,44.6,29.53,ENE,67,0.0,0.0,48,28.48,,,28.48,WeatherTracker,2013-08-25 01:45:00,
2013-08-24 21:50:00,63.7,44.6,29.53,ENE,67,0.0,0.0,49,28.48,,,28.48,WeatherTracker,2013-08-25 01:50:00,
2013-08-24 22:00:00,63.3,44.6,29.53,ENE,67,0.0,0.0,50,28.48,,,28.48,WeatherTracker,2013-08-25 02:00:00,
2013-08-24 22:05:00,63.1,44.6,29.53,ENE,67,0.0,0.0,51,28.48,,,28.48,WeatherTracker,2013-08-25 02:05:00,
2013-08-24 22:10:00,63.0,46.4,29.53,ENE,67,0.0,0.0,52,28.48,,,28.48,WeatherTracker,2013-08-25 02:10:00,
2013-08-24 22:15:00,62.8,46.4,29.53,ENE,67,0.0,0.0,53,28.48,,,28.48,WeatherTracker,2013-08-25 02:15:00,
2013-08-24 22:20:00,62.6,46.4,29.53,ENE,67,0.0,0.0,54,28.48,,,28.48,WeatherTracker,2013-08-25 02:20:00,
2013-08-24 22:30:00,62.4,46.4,29.56,ENE,67,0.0,0.0,55,28.48,,,28.48,WeatherTracker,2013-08-25 02:30:00,
2013-08-24 22:35:00,62.4,48.2,29.56,ENE,67,0.0,0.0,57,28.48,,,28.48,WeatherTracker,2013-08-25 02:35:00,
2013-08-24 22:40:00,62.2,46.4,29.56,ENE,67,0.0,0.0,57,28.48,,,28.48,WeatherTracker,2013-08-25 02:40:00,
2013-08-24 22:45:00,62.1,48.2,29.56,ENE,67,0.0,0.0,59,28.48,,,28.48,WeatherTracker,2013-08-25 02:45:00,
2013-08-24 22:50:00,61.9,48.2,29.56,ENE,67,0.0,0.0,58,28.48,,,28.48,WeatherTracker,2013-08-25 02:50:00,
2013-08-24 22:55:00,61.9,48.2,29.56,ENE,67,0.0,0.0,59,28.48,,,28.48,WeatherTracker,2013-08-25 02:55:00,
2013-08-24 23:00:00,62.1,48.2,29.56,ENE,67,0.0,0.0,60,28.48,,,28.48,WeatherTracker,2013-08-25 03:00:00,
2013-08-24 23:05:00,61.9,48.2,29.56,ENE,67,0.0,0.0,61,28.48,,,28.48,WeatherTracker,2013-08-25 03:05:00,
2013-08-24 23:10:00,61.9,48.2,29.56,ENE,67,0.0,0.0,61,28.48,,,28.48,WeatherTracker,2013-08-25 03:10:00,
2013-08-24 23:15:00,61.7,48.2,29.56,ENE,67,0.0,0.0,62,28.48,,,28.48,WeatherTracker,2013-08-25 03:15:00,
2013-08-24 23:20:00,61.5,48.2,29.56,ENE,67,0.0,0.0,62,28.48,,,28.48,WeatherTracker,2013-08-25 03:20:00,
2013-08-24 23:25:00,61.5,48.2,29.56,ENE,67,0.0,0.0,63,28.48,,,28.48,WeatherTracker,2013-08-25 03:25:00,
2013-08-24 23:30:00,61.5,50.0,29.56,ENE,67,0.0,0.0,64,28.48,,,28.48,WeatherTracker,2013-08-25 03:30:00,
2013-08-24 23:35:00,61.3,50.0,29.56,ENE,67,0.0,0.0,64,28.48,,,28.48,WeatherTracker,2013-08-25 03:35:00,
2013-08-24 23:40:00,61.3,50.0,29.53,ENE,67,0.0,0.0,65,28.48,,,28.48,WeatherTracker,2013-08-25 03:40:00,
2013-08-24 23:45:00,61.3,50.0,29.53,ENE,67,0.0,0.0,65,28.48,,,28.48,WeatherTracker,2013-08-25 03:45:00,
2013-08-24 23:50:00,61.3,50.0,29.53,ENE,67,0.0,0.0,66,28.48,,,28.48,WeatherTracker,2013-08-25 03:50:00,
2013-08-24 23:55:00,61.3,50.0,29.53,ENE,67,0.0,0.0,66,28.48,,,28.48,WeatherTracker,2013-08-25 03:55:00,